createdAt,value
2017-12-11T00:00:56.147Z,10.90
2017-12-11T00:03:21.966Z,10.53
2017-12-11T00:05:48.156Z,9.70
2017-12-11T00:08:13.955Z,9.45
2017-12-11T00:10:39.753Z,8.83
2017-12-11T00:13:05.572Z,12.40
2017-12-11T00:15:31.367Z,12.87
2017-12-11T00:17:57.155Z,12.53
2017-12-11T00:20:22.987Z,9.10
2017-12-11T00:22:49.582Z,7.45
2017-12-11T00:25:15.387Z,12.90
2017-12-11T00:27:41.184Z,8.50
2017-12-11T00:30:06.985Z,8.77
2017-12-11T00:32:32.780Z,11.10
2017-12-11T00:34:58.843Z,9.83
2017-12-11T00:37:24.636Z,10.07
2017-12-11T00:39:50.433Z,9.13
2017-12-11T00:42:16.259Z,11.80
2017-12-11T00:44:42.063Z,8.47
2017-12-11T00:47:07.867Z,11.33
2017-12-11T00:49:33.916Z,13.43
2017-12-11T00:51:59.715Z,12.23
2017-12-11T00:54:25.503Z,11.20
2017-12-11T00:56:51.305Z,10.20
2017-12-11T00:59:17.090Z,12.83
2017-12-11T01:01:42.897Z,12.40
2017-12-11T01:04:08.695Z,11.73
2017-12-11T01:06:34.499Z,9.23
2017-12-11T01:09:00.335Z,8.93
2017-12-11T01:11:26.135Z,12.23
2017-12-11T01:13:51.952Z,11.50
2017-12-11T01:16:17.778Z,10.67
2017-12-11T01:18:43.578Z,16.13
2017-12-11T01:21:09.416Z,60.53
2017-12-11T01:23:35.563Z,23.00
2017-12-11T01:26:01.356Z,28.92
2017-12-11T01:28:27.135Z,21.27
2017-12-11T01:30:52.983Z,38.00
2017-12-11T01:33:18.791Z,21.33
2017-12-11T01:35:44.581Z,13.50
2017-12-11T01:38:10.488Z,19.60
2017-12-11T01:40:36.327Z,22.83
2017-12-11T01:43:02.152Z,43.10
2017-12-11T01:45:27.999Z,20.83
2017-12-11T01:47:53.814Z,11.57
2017-12-11T01:50:19.618Z,15.13
2017-12-11T01:52:45.432Z,16.77
2017-12-11T01:55:11.214Z,26.20
2017-12-11T01:57:37.011Z,24.47
2017-12-11T02:00:02.849Z,13.50
2017-12-11T02:02:28.652Z,17.00
2017-12-11T02:04:54.458Z,16.37
2017-12-11T02:07:20.243Z,14.57
2017-12-11T02:09:46.052Z,18.90
2017-12-11T02:12:11.884Z,10.63
2017-12-11T02:14:37.690Z,22.13
2017-12-11T02:17:03.503Z,10.77
2017-12-11T02:19:29.407Z,17.73
2017-12-11T02:21:55.205Z,14.70
2017-12-11T02:24:21.000Z,20.37
2017-12-11T02:26:46.846Z,19.23
2017-12-11T02:29:12.671Z,16.50
2017-12-11T02:31:38.499Z,19.07
2017-12-11T02:34:04.326Z,19.50
2017-12-11T02:36:30.129Z,19.80
2017-12-11T02:38:55.960Z,21.50
2017-12-11T02:41:21.772Z,16.70
2017-12-11T02:43:47.565Z,15.47
2017-12-11T02:46:13.350Z,19.03
2017-12-11T02:48:39.254Z,18.40
2017-12-11T02:51:05.060Z,16.47
2017-12-11T02:53:30.881Z,13.00
2017-12-11T02:55:56.672Z,22.20
2017-12-11T02:58:22.459Z,18.30
2017-12-11T03:00:48.274Z,15.17
2017-12-11T03:03:14.066Z,20.17
2017-12-11T03:05:39.841Z,19.97
2017-12-11T03:08:05.700Z,19.17
2017-12-11T03:10:31.478Z,20.20
2017-12-11T03:12:57.276Z,20.20
2017-12-11T03:15:23.086Z,15.70
2017-12-11T03:17:48.959Z,16.83
2017-12-11T03:20:14.747Z,17.60
2017-12-11T03:22:40.542Z,21.30
2017-12-11T03:25:06.339Z,16.80
2017-12-11T03:27:32.446Z,18.53
2017-12-11T03:29:58.243Z,17.65
2017-12-11T03:32:24.037Z,18.20
2017-12-11T03:34:49.840Z,16.00
2017-12-11T03:37:15.612Z,14.30
2017-12-11T03:39:41.402Z,16.50
2017-12-11T03:42:07.215Z,18.33
2017-12-11T03:44:33.003Z,19.23
2017-12-11T03:46:58.788Z,18.90
2017-12-11T03:49:24.695Z,18.63
2017-12-11T03:51:50.479Z,20.43
2017-12-11T03:54:16.267Z,21.23
2017-12-11T03:56:42.057Z,21.70
2017-12-11T03:59:07.902Z,17.07
2017-12-11T04:01:33.987Z,20.07
2017-12-11T04:03:59.759Z,21.58
2017-12-11T04:06:25.552Z,22.37
2017-12-11T04:08:51.395Z,21.60
2017-12-11T04:11:17.166Z,21.63
2017-12-11T04:13:42.955Z,21.07
2017-12-11T04:16:09.076Z,18.90
2017-12-11T04:18:34.855Z,19.98
2017-12-11T04:21:00.618Z,21.63
2017-12-11T04:23:26.410Z,23.90
2017-12-11T04:25:52.193Z,18.60
2017-12-11T04:28:17.984Z,20.50
2017-12-11T04:30:43.871Z,19.03
2017-12-11T04:33:09.654Z,20.73
2017-12-11T04:35:35.447Z,13.90
2017-12-11T04:38:01.232Z,20.20
2017-12-11T04:40:27.014Z,23.00
2017-12-11T04:42:52.799Z,20.57
2017-12-11T04:45:18.595Z,20.10
2017-12-11T04:47:44.375Z,29.87
2017-12-11T04:50:10.155Z,21.50
2017-12-11T04:52:35.921Z,24.33
2017-12-11T04:55:01.691Z,20.57
2017-12-11T04:57:27.778Z,20.93
2017-12-11T04:59:53.717Z,19.65
2017-12-11T05:02:20.287Z,20.87
2017-12-11T05:04:46.953Z,21.37
2017-12-11T05:07:13.568Z,19.00
2017-12-11T05:09:39.533Z,19.17
2017-12-11T05:12:06.153Z,27.70
2017-12-11T05:14:32.767Z,118.72
2017-12-11T05:16:59.395Z,35.78
2017-12-11T05:19:25.226Z,162.93
2017-12-11T05:21:51.775Z,69.20
2017-12-11T05:24:17.804Z,18.48
2017-12-11T05:26:43.583Z,16.20
2017-12-11T05:29:09.387Z,35.80
2017-12-11T05:31:35.203Z,18.50
2017-12-11T05:34:01.000Z,18.53
2017-12-11T05:36:26.765Z,17.07
2017-12-11T05:38:52.576Z,19.37
2017-12-11T05:41:18.371Z,15.90
2017-12-11T05:43:44.150Z,18.70
2017-12-11T05:46:09.988Z,22.33
2017-12-11T05:48:35.779Z,21.90
2017-12-11T05:51:01.555Z,25.50
2017-12-11T05:53:27.463Z,20.93
2017-12-11T05:55:53.246Z,19.10
2017-12-11T05:58:19.031Z,22.87
2017-12-11T06:00:44.819Z,25.70
2017-12-11T06:03:10.610Z,23.73
2017-12-11T06:05:36.403Z,25.37
2017-12-11T06:08:02.205Z,17.60
2017-12-11T06:10:28.002Z,23.60
2017-12-11T06:12:53.794Z,30.10
2017-12-11T06:15:19.591Z,23.80
2017-12-11T06:17:45.375Z,28.03
2017-12-11T06:20:11.153Z,29.87
2017-12-11T06:22:36.954Z,21.27
2017-12-11T06:25:02.772Z,19.77
2017-12-11T06:27:28.558Z,27.83
2017-12-11T06:29:54.697Z,24.07
2017-12-11T06:32:20.472Z,27.37
2017-12-11T06:34:46.251Z,26.33
2017-12-11T06:37:12.043Z,29.30
2017-12-11T06:39:37.815Z,26.87
2017-12-11T06:42:03.611Z,28.23
2017-12-11T06:44:29.423Z,15.80
2017-12-11T06:46:55.186Z,21.50
2017-12-11T06:49:21.009Z,27.67
2017-12-11T06:51:47.830Z,26.87
2017-12-11T06:54:13.608Z,25.02
2017-12-11T06:56:39.386Z,39.30
2017-12-11T06:59:05.168Z,31.57
2017-12-11T07:01:30.947Z,21.83
2017-12-11T07:03:56.710Z,25.47
2017-12-11T07:06:22.802Z,25.93
2017-12-11T07:08:48.582Z,25.00
2017-12-11T07:11:14.366Z,26.97
2017-12-11T07:13:40.157Z,26.07
2017-12-11T07:16:05.935Z,27.57
2017-12-11T07:18:31.712Z,25.73
2017-12-11T07:20:57.507Z,34.33
2017-12-11T07:23:23.287Z,24.57
2017-12-11T07:25:49.070Z,23.37
2017-12-11T07:28:14.895Z,27.57
2017-12-11T07:30:40.683Z,30.70
2017-12-11T07:33:06.459Z,29.13
2017-12-11T07:35:32.336Z,29.70
2017-12-11T07:37:58.118Z,27.93
2017-12-11T07:40:23.918Z,31.47
2017-12-11T07:42:49.867Z,24.10
2017-12-11T07:45:15.685Z,25.70
2017-12-11T07:47:41.463Z,41.13
2017-12-11T07:50:07.271Z,25.70
2017-12-11T07:52:33.047Z,31.80
2017-12-11T07:54:59.106Z,42.70
2017-12-11T07:57:24.891Z,32.92
2017-12-11T07:59:50.661Z,23.30
2017-12-11T08:02:16.487Z,31.50
2017-12-11T08:04:42.318Z,31.03
2017-12-11T08:07:08.115Z,27.80
2017-12-11T08:09:33.891Z,33.73
2017-12-11T08:11:59.669Z,28.43
2017-12-11T08:14:25.456Z,29.33
2017-12-11T08:16:51.232Z,32.60
2017-12-11T08:19:17.010Z,33.97
2017-12-11T08:21:42.816Z,29.57
2017-12-11T08:24:08.602Z,31.57
2017-12-11T08:26:34.380Z,34.97
2017-12-11T08:29:00.454Z,32.83
2017-12-11T08:31:26.274Z,26.95
2017-12-11T08:33:52.056Z,29.77
2017-12-11T08:36:17.861Z,35.10
2017-12-11T08:38:43.630Z,29.50
2017-12-11T08:41:09.410Z,33.87
2017-12-11T08:43:35.207Z,36.07
2017-12-11T08:46:00.984Z,34.87
2017-12-11T08:48:26.759Z,32.27
2017-12-11T08:50:53.652Z,33.47
2017-12-11T08:53:19.475Z,38.70
2017-12-11T08:55:45.251Z,33.37
2017-12-11T08:58:11.363Z,32.63
2017-12-11T09:00:37.259Z,33.00
2017-12-11T09:03:03.051Z,30.43
2017-12-11T09:05:29.010Z,27.03
2017-12-11T09:07:54.798Z,32.77
2017-12-11T09:10:22.029Z,26.80
2017-12-11T09:12:50.272Z,31.45
2017-12-11T09:15:16.058Z,31.20
2017-12-11T09:17:42.833Z,30.53
2017-12-11T09:20:08.826Z,31.80
2017-12-11T09:22:34.630Z,33.50
2017-12-11T09:25:00.639Z,35.80
2017-12-11T09:27:26.692Z,41.45
2017-12-11T09:29:52.495Z,51.55
2017-12-11T09:32:18.299Z,71.83
2017-12-11T09:34:44.406Z,63.93
2017-12-11T09:37:12.486Z,66.32
2017-12-11T09:39:38.292Z,56.72
2017-12-11T09:42:05.091Z,48.60
2017-12-11T09:44:30.911Z,46.20
2017-12-11T09:46:56.723Z,34.30
2017-12-11T09:49:22.531Z,34.33
2017-12-11T09:51:50.915Z,32.00
2017-12-11T09:54:17.858Z,33.05
2017-12-11T09:56:44.903Z,34.70
2017-12-11T09:59:11.361Z,36.22
2017-12-11T10:01:37.391Z,31.83
2017-12-11T10:04:03.971Z,30.15
2017-12-11T10:06:29.872Z,28.85
2017-12-11T10:08:55.961Z,34.07
2017-12-11T10:11:22.197Z,32.15
2017-12-11T10:13:48.008Z,33.88
2017-12-11T10:16:14.813Z,32.50
2017-12-11T10:18:40.669Z,34.00
2017-12-11T10:21:07.187Z,33.93
2017-12-11T10:23:34.303Z,37.90
2017-12-11T10:26:00.084Z,37.25
2017-12-11T10:28:26.538Z,35.53
2017-12-11T10:30:52.416Z,33.53
2017-12-11T10:33:18.276Z,30.60
2017-12-11T10:35:45.540Z,34.63
2017-12-11T10:38:11.398Z,38.30
2017-12-11T10:40:37.503Z,35.27
2017-12-11T10:43:03.378Z,31.50
2017-12-11T10:45:29.682Z,31.57
2017-12-11T10:47:55.629Z,50.92
2017-12-11T10:50:21.448Z,26.70
2017-12-11T10:52:47.845Z,33.27
2017-12-11T10:55:14.923Z,31.42
2017-12-11T10:57:45.048Z,33.95
2017-12-11T11:00:11.346Z,28.60
2017-12-11T11:02:37.296Z,28.87
2017-12-11T11:05:04.593Z,38.43
2017-12-11T11:07:30.627Z,33.40
2017-12-11T11:09:57.415Z,30.45
2017-12-11T11:12:23.220Z,28.87
2017-12-11T11:14:48.999Z,33.40
2017-12-11T11:17:15.482Z,37.80
2017-12-11T11:19:41.295Z,47.10
2017-12-11T11:22:07.089Z,31.37
2017-12-11T11:24:32.903Z,34.30
2017-12-11T11:26:59.542Z,33.77
2017-12-11T11:29:25.363Z,47.80
2017-12-11T11:31:51.162Z,44.47
2017-12-11T11:34:17.333Z,28.27
2017-12-11T11:36:43.630Z,32.08
2017-12-11T11:39:09.410Z,37.90
2017-12-11T11:41:35.206Z,33.27
2017-12-11T11:44:00.996Z,28.50
2017-12-11T11:46:26.928Z,41.67
2017-12-11T11:48:53.281Z,31.60
2017-12-11T11:51:19.070Z,30.53
2017-12-11T11:53:44.899Z,32.60
2017-12-11T11:56:10.709Z,32.97
2017-12-11T11:58:36.611Z,37.77
2017-12-11T12:01:02.430Z,35.47
2017-12-11T12:03:28.236Z,30.30
2017-12-11T12:05:54.035Z,31.93
2017-12-11T12:08:20.158Z,38.67
2017-12-11T12:10:47.599Z,38.22
2017-12-11T12:13:14.727Z,33.33
2017-12-11T12:15:40.519Z,33.22
2017-12-11T12:18:06.986Z,40.13
2017-12-11T12:20:32.882Z,32.20
2017-12-11T12:22:59.450Z,36.80
2017-12-11T12:25:25.506Z,40.90
2017-12-11T12:27:52.576Z,49.70
2017-12-11T12:30:18.748Z,44.05
2017-12-11T12:32:45.302Z,41.40
2017-12-11T12:35:12.079Z,34.25
2017-12-11T12:37:37.883Z,40.40
2017-12-11T12:40:05.590Z,36.63
2017-12-11T12:42:31.596Z,41.08
2017-12-11T12:44:57.443Z,40.78
2017-12-11T12:47:23.262Z,56.03
2017-12-11T12:49:49.087Z,45.83
2017-12-11T12:52:14.883Z,50.60
2017-12-11T12:54:40.687Z,52.90
2017-12-11T12:57:06.970Z,57.53
2017-12-11T12:59:32.750Z,41.53
2017-12-11T13:01:58.576Z,49.60
2017-12-11T13:04:25.198Z,38.03
2017-12-11T13:06:51.562Z,32.63
2017-12-11T13:09:17.362Z,51.17
2017-12-11T13:11:45.397Z,41.63
2017-12-11T13:14:11.231Z,53.47
2017-12-11T13:16:37.488Z,49.43
2017-12-11T13:19:03.261Z,107.57
2017-12-11T13:21:29.051Z,142.10
2017-12-11T13:23:54.863Z,126.37
2017-12-11T13:26:20.642Z,112.57
2017-12-11T13:28:46.418Z,70.40
2017-12-11T13:31:12.203Z,72.23
2017-12-11T13:33:37.991Z,71.90
2017-12-11T13:36:03.859Z,76.17
2017-12-11T13:38:29.643Z,97.30
2017-12-11T13:40:55.432Z,158.77
2017-12-11T13:43:21.263Z,81.07
2017-12-11T13:45:47.151Z,202.23
2017-12-11T13:48:12.922Z,170.70
2017-12-11T13:50:39.628Z,143.90
2017-12-11T13:53:05.407Z,173.25
2017-12-11T13:55:31.178Z,117.30
2017-12-11T13:57:56.971Z,187.43
2017-12-11T14:00:22.941Z,114.30
2017-12-11T14:02:49.728Z,150.57
2017-12-11T14:05:15.569Z,67.10
2017-12-11T14:07:41.342Z,74.13
2017-12-11T14:10:07.822Z,51.90
2017-12-11T14:12:34.197Z,66.50
2017-12-11T14:14:59.970Z,48.25
2017-12-11T14:17:25.749Z,84.53
2017-12-11T14:19:51.708Z,39.80
2017-12-11T14:22:17.486Z,44.80
2017-12-11T14:24:43.256Z,52.27
2017-12-11T14:27:09.046Z,61.33
2017-12-11T14:29:34.817Z,70.33
2017-12-11T14:32:00.640Z,81.97
2017-12-11T14:34:26.445Z,52.57
2017-12-11T14:36:52.239Z,67.53
2017-12-11T14:39:18.002Z,67.33
2017-12-11T14:41:43.775Z,51.13
2017-12-11T14:44:10.913Z,61.27
2017-12-11T14:46:37.329Z,65.50
2017-12-11T14:49:03.168Z,81.22
2017-12-11T14:51:30.023Z,57.27
2017-12-11T14:53:55.860Z,67.57
2017-12-11T14:56:22.810Z,62.50
2017-12-11T14:58:50.350Z,59.25
2017-12-11T15:01:17.166Z,70.20
2017-12-11T15:03:43.519Z,48.50
2017-12-11T15:06:10.062Z,51.65
2017-12-11T15:08:36.339Z,47.08
2017-12-11T15:11:02.172Z,43.17
2017-12-11T15:13:28.538Z,50.83
2017-12-11T15:15:55.808Z,40.35
2017-12-11T15:18:21.618Z,42.67
2017-12-11T15:20:47.453Z,49.17
2017-12-11T15:23:13.814Z,48.20
2017-12-11T15:25:39.650Z,57.60
2017-12-11T15:28:05.478Z,61.17
2017-12-11T15:30:31.277Z,62.20
2017-12-11T15:32:57.746Z,44.17
2017-12-11T15:35:23.553Z,51.50
2017-12-11T15:37:51.727Z,54.73
2017-12-11T15:40:20.706Z,61.15
2017-12-11T15:42:46.687Z,37.08
2017-12-11T15:45:12.516Z,38.33
2017-12-11T15:47:39.595Z,40.77
2017-12-11T15:50:05.757Z,44.13
2017-12-11T15:52:31.553Z,34.28
2017-12-11T15:54:57.382Z,35.77
2017-12-11T15:57:23.185Z,30.13
2017-12-11T15:59:49.605Z,33.60
2017-12-11T16:02:16.488Z,32.25
2017-12-11T16:04:42.959Z,34.13
2017-12-11T16:07:09.880Z,32.03
2017-12-11T16:09:38.001Z,54.35
2017-12-11T16:12:07.277Z,117.60
2017-12-11T16:14:35.450Z,147.40
2017-12-11T16:17:02.111Z,86.30
2017-12-11T16:19:32.404Z,67.70
2017-12-11T16:22:00.390Z,83.85
2017-12-11T16:24:29.033Z,96.12
2017-12-11T16:26:56.036Z,37.97
2017-12-11T16:29:23.940Z,60.35
2017-12-11T16:31:51.358Z,101.25
2017-12-11T16:34:19.223Z,46.55
2017-12-11T16:36:45.064Z,48.55
2017-12-11T16:39:11.023Z,41.93
2017-12-11T16:41:37.523Z,60.70
2017-12-11T16:44:03.372Z,65.32
2017-12-11T16:46:29.748Z,40.00
2017-12-11T16:48:55.551Z,70.15
2017-12-11T16:51:22.466Z,50.63
2017-12-11T16:53:48.277Z,52.72
2017-12-11T16:56:15.947Z,53.43
2017-12-11T16:58:41.783Z,76.97
2017-12-11T17:01:08.857Z,217.33
2017-12-11T17:03:34.731Z,51.97
2017-12-11T17:06:01.010Z,100.77
2017-12-11T17:08:26.804Z,118.18
2017-12-11T17:10:53.698Z,57.47
2017-12-11T17:13:19.686Z,45.47
2017-12-11T17:15:46.315Z,52.05
2017-12-11T17:18:12.102Z,56.05
2017-12-11T17:20:38.163Z,43.30
2017-12-11T17:23:03.966Z,106.15
2017-12-11T17:25:30.655Z,65.63
2017-12-11T17:27:56.470Z,127.03
2017-12-11T17:30:23.307Z,88.70
2017-12-11T17:32:49.307Z,236.00
2017-12-11T17:35:15.865Z,56.88
2017-12-11T17:37:41.715Z,77.32
2017-12-11T17:40:07.543Z,97.97
2017-12-11T17:42:33.384Z,52.27
2017-12-11T17:44:59.178Z,63.07
2017-12-11T17:47:26.067Z,68.77
2017-12-11T17:49:51.863Z,79.55
2017-12-11T17:52:17.656Z,108.40
2017-12-11T17:54:43.544Z,46.33
2017-12-11T17:57:09.372Z,39.40
2017-12-11T17:59:35.167Z,57.27
2017-12-11T18:02:01.968Z,61.23
2017-12-11T18:04:27.769Z,111.93
2017-12-11T18:06:54.156Z,140.80
2017-12-11T18:09:20.154Z,100.50
2017-12-11T18:11:45.949Z,63.47
2017-12-11T18:14:11.779Z,206.47
2017-12-11T18:16:37.790Z,166.13
2017-12-11T18:19:03.585Z,94.05
2017-12-11T18:21:29.864Z,112.57
2017-12-11T18:23:56.393Z,125.75
2017-12-11T18:26:25.038Z,62.80
2017-12-11T18:28:51.807Z,88.68
2017-12-11T18:31:17.859Z,66.50
2017-12-11T18:33:44.449Z,93.32
2017-12-11T18:36:11.209Z,75.97
2017-12-11T18:38:37.007Z,74.22
2017-12-11T18:41:03.671Z,83.00
2017-12-11T18:43:29.499Z,59.10
2017-12-11T18:45:55.577Z,107.77
2017-12-11T18:48:21.380Z,77.05
2017-12-11T18:50:47.168Z,63.83
2017-12-11T18:53:14.259Z,59.07
2017-12-11T18:55:40.533Z,55.70
2017-12-11T18:58:06.668Z,60.55
2017-12-11T19:00:32.688Z,43.87
2017-12-11T19:02:59.560Z,43.10
2017-12-11T19:05:25.379Z,53.78
2017-12-11T19:07:52.082Z,50.97
2017-12-11T19:10:18.181Z,53.08
2017-12-11T19:12:44.058Z,39.50
2017-12-11T19:15:09.886Z,43.50
2017-12-11T19:17:35.706Z,47.87
2017-12-11T19:20:04.562Z,56.47
2017-12-11T19:22:30.396Z,38.80
2017-12-11T19:24:57.259Z,40.50
2017-12-11T19:27:23.108Z,50.00
2017-12-11T19:29:48.929Z,32.20
2017-12-11T19:32:15.018Z,46.27
2017-12-11T19:34:41.493Z,57.67
2017-12-11T19:37:07.367Z,44.35
2017-12-11T19:39:34.937Z,40.03
2017-12-11T19:42:00.930Z,60.45
2017-12-11T19:44:26.745Z,64.60
2017-12-11T19:46:55.608Z,70.50
2017-12-11T19:49:22.240Z,64.18
2017-12-11T19:51:48.213Z,75.53
2017-12-11T19:54:15.743Z,142.63
2017-12-11T19:56:41.792Z,57.10
2017-12-11T19:59:07.596Z,122.57
2017-12-11T20:01:33.560Z,43.23
2017-12-11T20:03:59.432Z,80.60
2017-12-11T20:06:25.274Z,108.27
2017-12-11T20:08:53.128Z,93.97
2017-12-11T20:11:18.920Z,52.47
2017-12-11T20:13:45.059Z,62.63
2017-12-11T20:16:10.863Z,47.13
2017-12-11T20:18:36.649Z,49.00
2017-12-11T20:21:03.331Z,63.17
2017-12-11T20:23:29.128Z,60.95
2017-12-11T20:25:54.913Z,41.53
2017-12-11T20:28:21.305Z,74.20
2017-12-11T20:30:48.119Z,54.38
2017-12-11T20:33:13.924Z,46.55
2017-12-11T20:35:40.398Z,49.43
2017-12-11T20:38:06.183Z,65.30
2017-12-11T20:40:32.026Z,64.30
2017-12-11T20:42:57.879Z,56.60
2017-12-11T20:45:23.725Z,61.77
2017-12-11T20:47:49.539Z,67.63
2017-12-11T20:50:16.211Z,45.07
2017-12-11T20:52:43.015Z,33.40
2017-12-11T20:55:09.599Z,35.50
2017-12-11T20:57:35.729Z,50.75
2017-12-11T21:00:01.561Z,52.70
2017-12-11T21:02:28.771Z,39.13
2017-12-11T21:04:55.730Z,38.50
2017-12-11T21:07:22.108Z,30.77
2017-12-11T21:09:48.581Z,34.47
2017-12-11T21:12:14.395Z,41.10
2017-12-11T21:14:40.234Z,31.20
2017-12-11T21:17:06.064Z,35.37
2017-12-11T21:19:31.864Z,29.40
2017-12-11T21:21:57.695Z,42.10
2017-12-11T21:24:23.502Z,47.83
2017-12-11T21:26:50.227Z,32.40
2017-12-11T21:29:17.076Z,45.42
2017-12-11T21:31:42.868Z,37.85
2017-12-11T21:34:08.681Z,42.30
2017-12-11T21:36:35.619Z,45.53
2017-12-11T21:39:03.542Z,45.95
2017-12-11T21:41:29.426Z,55.20
2017-12-11T21:43:55.987Z,31.60
2017-12-11T21:46:22.072Z,32.80
2017-12-11T21:48:48.790Z,42.17
2017-12-11T21:51:14.994Z,29.25
2017-12-11T21:53:41.842Z,37.10
2017-12-11T21:56:08.273Z,35.97
2017-12-11T21:58:34.697Z,28.70
2017-12-11T22:01:03.645Z,43.38
2017-12-11T22:03:29.634Z,32.05
2017-12-11T22:05:56.975Z,30.53
2017-12-11T22:08:23.722Z,29.12
2017-12-11T22:10:49.526Z,29.50
2017-12-11T22:13:15.662Z,37.73
2017-12-11T22:15:42.335Z,36.53
2017-12-11T22:18:09.962Z,34.42
2017-12-11T22:20:35.789Z,29.10
2017-12-11T22:23:03.126Z,29.27
2017-12-11T22:25:29.781Z,27.55
2017-12-11T22:27:55.884Z,36.97
2017-12-11T22:30:22.632Z,29.45
2017-12-11T22:32:48.449Z,29.48
2017-12-11T22:35:14.492Z,29.93
2017-12-11T22:37:40.652Z,28.33
2017-12-11T22:40:06.819Z,29.10
2017-12-11T22:42:33.402Z,30.23
2017-12-11T22:45:00.878Z,27.75
2017-12-11T22:47:26.916Z,25.17
2017-12-11T22:49:53.572Z,28.65
2017-12-11T22:52:19.455Z,30.80
2017-12-11T22:54:45.258Z,22.13
2017-12-11T22:57:12.049Z,27.67
2017-12-11T22:59:37.835Z,22.17
2017-12-11T23:02:03.850Z,26.20
2017-12-11T23:04:29.646Z,25.62
2017-12-11T23:06:55.495Z,28.73
2017-12-11T23:09:21.303Z,30.77
2017-12-11T23:11:47.070Z,30.90
2017-12-11T23:14:12.885Z,28.93
2017-12-11T23:16:38.666Z,29.40
2017-12-11T23:19:04.438Z,33.27
2017-12-11T23:21:30.250Z,20.90
2017-12-11T23:23:56.030Z,31.97
2017-12-11T23:26:21.804Z,24.37
2017-12-11T23:28:47.609Z,20.93
2017-12-11T23:31:13.710Z,24.47
2017-12-11T23:33:39.490Z,23.50
2017-12-11T23:36:05.274Z,23.00
2017-12-11T23:38:31.070Z,22.97
2017-12-11T23:40:56.870Z,17.93
2017-12-11T23:43:22.650Z,17.37
2017-12-11T23:45:48.451Z,20.03
2017-12-11T23:48:14.232Z,23.20
2017-12-11T23:50:40.007Z,21.77
2017-12-11T23:53:06.073Z,17.67
2017-12-11T23:55:31.847Z,17.85
2017-12-11T23:57:57.616Z,21.07
